Terminal Aerodrome Forecast
Issued by NWS

Home | Current Version | Previous Version | Text Only | Print | Product List | Glossary On
Versions: 1 2 3 4 5 6 7 8 9 10 11 12
019
FTUS45 KRIW 191138
TAFWRL
TAF
KWRL 191138Z 1912/2012 14011KT P6SM -SHRA BKN060
     FM191600 24009KT P6SM VCSH BKN070
     FM192100 31014KT P6SM BKN070
     FM200000 VRB05KT P6SM BKN090=

USA.gov is the U.S. government's official web portal to all federal, state and local government web resources and services.